Time;durP1;ratioP1;P1;durP2;ratioP2;P2;SDS_P1;SDS_P2;PMS_P1;PMS_P2;Temp;Humidity;BMP_temperature;BMP_pressure;BME280_temperature;BME280_humidity;BME280_pressure;Samples;Min_cycle;Max_cycle;Signal;HPM_P1;HPM_P2
2023/09/11 00:01:50;;;;;;;;;;;;;;;22.89;90.05;101392.66;5037633;28;19913;-73
2023/09/11 00:04:15;;;;;;;;;;;;;;;22.87;90.14;101383.94;5037441;28;19924;-73
2023/09/11 00:06:41;;;;;;;;;;;;;;;22.85;90.20;101386.72;5037300;28;19913;-73
2023/09/11 00:09:07;;;;;;;;;;;;;;;22.82;90.61;101384.31;5037738;28;20204;-73
2023/09/11 00:11:32;;;;;;;;;;;;;;;22.81;90.65;101387.94;5037331;28;19944;-73
2023/09/11 00:13:57;;;;;;;;;;;;;;;22.79;90.70;101385.44;5037397;28;20119;-73
2023/09/11 00:16:22;;;;;;;;;;;;;;;22.78;90.69;101382.88;5037729;28;19940;-73
2023/09/11 00:18:48;;;;;;;;;;;;;;;22.74;90.34;101379.63;5037950;28;19947;-73
2023/09/11 00:21:13;;;;;;;;;;;;;;;22.71;90.53;101374.53;5038153;28;19905;-73
2023/09/11 00:23:38;;;;;;;;;;;;;;;22.70;91.01;101380.84;5037404;28;19947;-73
2023/09/11 00:26:04;;;;;;;;;;;;;;;22.66;90.70;101378.56;5038026;28;19917;-73
2023/09/11 00:28:29;;;;;;;;;;;;;;;22.62;91.32;101376.13;5036977;28;20208;-73
2023/09/11 00:30:58;;;;;;;;;;;;;;;22.60;91.00;101377.25;5036338;28;19967;-73
2023/09/11 00:33:23;;;;;;;;;;;;;;;22.57;91.13;101366.81;5037180;28;19913;-73
2023/09/11 00:35:48;;;;;;;;;;;;;;;22.53;91.23;101368.91;5037660;28;19905;-73
2023/09/11 00:38:14;;;;;;;;;;;;;;;22.52;91.58;101367.22;5037307;28;19913;-73
2023/09/11 00:40:39;;;;;;;;;;;;;;;22.52;91.92;101369.03;5037193;28;20180;-73
2023/09/11 00:43:04;;;;;;;;;;;;;;;22.49;91.99;101370.13;5037926;28;19912;-73
2023/09/11 00:45:30;;;;;;;;;;;;;;;22.48;91.92;101373.75;5036535;28;19905;-73
2023/09/11 00:47:55;;;;;;;;;;;;;;;22.47;91.95;101363.25;5037417;28;19959;-73
2023/09/11 00:50:21;;;;;;;;;;;;;;;22.44;91.67;101364.31;5036717;28;20119;-73
2023/09/11 00:52:47;;;;;;;;;;;;;;;22.43;91.89;101365.31;5037511;28;19913;-73
2023/09/11 00:55:12;;;;;;;;;;;;;;;22.40;92.06;101358.38;5037293;28;19917;-73
2023/09/11 00:57:38;;;;;;;;;;;;;;;22.41;91.82;101353.91;5036893;28;19924;-73
2023/09/11 01:00:06;;;;;;;;;;;;;;;22.39;91.98;101351.38;5037350;28;19917;-73
2023/09/11 01:02:31;;;;;;;;;;;;;;;22.39;91.88;101358.50;5036372;28;19912;-73
2023/09/11 01:04:58;;;;;;;;;;;;;;;22.38;91.92;101354.16;5037427;28;19917;-73
2023/09/11 01:07:23;;;;;;;;;;;;;;;22.36;91.66;101356.13;5036654;28;19984;-73
2023/09/11 01:09:49;;;;;;;;;;;;;;;22.33;92.10;101351.88;5037311;28;19913;-73
2023/09/11 01:12:14;;;;;;;;;;;;;;;22.31;91.95;101348.47;5036642;28;20023;-73
2023/09/11 01:14:39;;;;;;;;;;;;;;;22.29;92.40;101349.59;5034989;28;19912;-73
2023/09/11 01:17:24;;;;;;;;;;;;;;;22.27;92.27;101347.03;5036804;28;20116;-73
2023/09/11 01:19:58;;;;;;;;;;;;;;;22.23;92.47;101341.09;5036796;28;19913;-73
2023/09/11 01:22:42;;;;;;;;;;;;;;;22.20;92.57;101343.16;5036146;28;20404;-73
2023/09/11 01:25:10;;;;;;;;;;;;;;;22.17;92.89;101338.06;5036676;28;20232;-73
2023/09/11 01:27:53;;;;;;;;;;;;;;;22.15;93.23;101342.69;5035942;28;19920;-73
2023/09/11 01:30:20;;;;;;;;;;;;;;;22.11;93.06;101336.75;5035906;28;20172;-73
2023/09/11 01:32:45;;;;;;;;;;;;;;;22.10;93.59;101328.88;5036685;28;20353;-73
2023/09/11 01:35:11;;;;;;;;;;;;;;;22.08;93.54;101329.00;5036582;28;19905;-73
2023/09/11 01:37:36;;;;;;;;;;;;;;;22.07;93.34;101318.47;5035410;28;19992;-73
2023/09/11 01:40:02;;;;;;;;;;;;;;;22.05;93.73;101324.75;5036201;28;19912;-73
2023/09/11 01:42:30;;;;;;;;;;;;;;;22.03;93.81;101324.03;5035276;28;19936;-73
2023/09/11 01:44:58;;;;;;;;;;;;;;;22.01;93.85;101320.66;5036004;28;20206;-73
2023/09/11 01:47:25;;;;;;;;;;;;;;;22.01;93.83;101328.66;5035927;28;19920;-73
2023/09/11 01:49:52;;;;;;;;;;;;;;;21.98;93.94;101312.06;5036535;28;19916;-73
2023/09/11 01:52:18;;;;;;;;;;;;;;;21.95;94.08;101306.97;5035550;28;19908;-73
2023/09/11 01:54:43;;;;;;;;;;;;;;;21.95;93.77;101305.16;5034897;28;19924;-73
2023/09/11 01:57:09;;;;;;;;;;;;;;;21.94;94.06;101308.81;5036294;28;19912;-73
2023/09/11 01:59:34;;;;;;;;;;;;;;;21.94;93.75;101306.13;5035331;28;19913;-73
2023/09/11 02:02:00;;;;;;;;;;;;;;;21.93;93.85;101301.75;5047168;28;19912;-73
2023/09/11 02:04:25;;;;;;;;;;;;;;;21.93;94.26;101291.09;5055326;28;20154;-73
2023/09/11 02:06:51;;;;;;;;;;;;;;;21.93;93.96;101298.25;5056322;28;19913;-73
2023/09/11 02:09:16;;;;;;;;;;;;;;;21.93;94.19;101287.59;5045399;28;19913;-73
2023/09/11 02:11:41;;;;;;;;;;;;;;;21.92;94.12;101293.88;5035952;28;19944;-73
2023/09/11 02:14:07;;;;;;;;;;;;;;;21.91;94.06;101285.03;5035163;28;19920;-73
2023/09/11 02:16:32;;;;;;;;;;;;;;;21.89;94.52;101286.16;5035301;28;19915;-73
2023/09/11 02:18:57;;;;;;;;;;;;;;;21.88;94.55;101287.13;5035581;28;20120;-73
2023/09/11 02:21:23;;;;;;;;;;;;;;;21.85;94.78;101291.72;5035050;28;20136;-73
2023/09/11 02:23:48;;;;;;;;;;;;;;;21.84;94.56;101297.19;5035913;28;20313;-73
2023/09/11 02:26:13;;;;;;;;;;;;;;;21.82;94.70;101291.97;5035290;28;19920;-73
2023/09/11 02:28:40;;;;;;;;;;;;;;;21.80;95.20;101290.41;5035220;28;19992;-73
2023/09/11 02:31:05;;;;;;;;;;;;;;;21.77;95.18;101293.31;5017229;28;19913;-73
2023/09/11 02:33:30;;;;;;;;;;;;;;;21.76;95.29;101288.97;5034853;28;20115;-73
2023/09/11 02:35:56;;;;;;;;;;;;;;;21.74;94.98;101288.22;5034620;28;19919;-73
2023/09/11 02:38:21;;;;;;;;;;;;;;;21.73;95.25;101289.22;5034637;28;19917;-73
2023/09/11 02:40:47;;;;;;;;;;;;;;;21.72;95.00;101284.84;5035286;28;20242;-73
2023/09/11 02:43:12;;;;;;;;;;;;;;;21.70;95.37;101284.94;5035142;28;20153;-73
2023/09/11 02:45:37;;;;;;;;;;;;;;;21.69;94.96;101279.78;5034810;28;19976;-73
2023/09/11 02:48:02;;;;;;;;;;;;;;;21.64;95.34;101278.31;5035235;28;19936;-73
2023/09/11 02:50:28;;;;;;;;;;;;;;;21.63;95.39;101287.28;5034708;28;19913;-73
2023/09/11 02:52:53;;;;;;;;;;;;;;;21.60;95.20;101281.34;5034361;28;19924;-72
2023/09/11 02:55:18;;;;;;;;;;;;;;;21.58;95.24;101280.63;5034735;28;19984;-72
2023/09/11 02:57:44;;;;;;;;;;;;;;;21.55;95.29;101267.56;5035488;28;19905;-72
2023/09/11 03:00:10;;;;;;;;;;;;;;;21.53;95.65;101267.66;5035083;28;19913;-72
2023/09/11 03:02:35;;;;;;;;;;;;;;;21.52;95.75;101273.13;5034463;28;19920;-72
2023/09/11 03:05:00;;;;;;;;;;;;;;;21.50;95.49;101267.91;5034936;28;19917;-72
2023/09/11 03:07:26;;;;;;;;;;;;;;;21.49;95.93;101268.06;5034972;28;20263;-72
2023/09/11 03:09:51;;;;;;;;;;;;;;;21.47;95.58;101265.50;5034924;28;19919;-72
2023/09/11 03:12:16;;;;;;;;;;;;;;;21.46;95.64;101263.81;5034362;28;19912;-72
2023/09/11 03:14:41;;;;;;;;;;;;;;;21.45;95.68;101259.47;5035065;28;20204;-72
2023/09/11 03:17:07;;;;;;;;;;;;;;;21.44;95.71;101249.72;5034847;28;20117;-72
2023/09/11 03:19:33;;;;;;;;;;;;;;;21.42;95.72;101249.00;5016667;28;19913;-72
2023/09/11 03:21:58;;;;;;;;;;;;;;;21.41;95.69;101242.84;5035007;28;20143;-72
2023/09/11 03:24:23;;;;;;;;;;;;;;;21.41;95.82;101247.31;5034250;28;19917;-72
2023/09/11 03:26:48;;;;;;;;;;;;;;;21.40;95.71;101233.13;5034803;28;19920;-72
2023/09/11 03:29:14;;;;;;;;;;;;;;;21.40;95.82;101237.63;5034790;28;19935;-72
2023/09/11 03:31:39;;;;;;;;;;;;;;;21.39;95.97;101233.25;5034403;28;19913;-72
2023/09/11 03:34:04;;;;;;;;;;;;;;;21.38;96.00;101235.09;5035070;28;19913;-72
2023/09/11 03:36:30;;;;;;;;;;;;;;;21.37;95.90;101232.53;5034041;28;19912;-72
2023/09/11 03:38:55;;;;;;;;;;;;;;;21.35;95.89;101240.66;5034571;28;19904;-72
2023/09/11 03:41:21;;;;;;;;;;;;;;;21.34;95.87;101238.09;5034214;28;19944;-72
2023/09/11 03:43:46;;;;;;;;;;;;;;;21.32;95.82;101238.25;5034622;28;20085;-72
2023/09/11 03:46:14;;;;;;;;;;;;;;;21.32;95.97;101232.06;5035131;28;19920;-72
2023/09/11 03:48:40;;;;;;;;;;;;;;;21.31;95.58;101239.22;5034359;28;20250;-72
2023/09/11 03:51:05;;;;;;;;;;;;;;;21.29;95.52;101225.16;5034515;28;19913;-72
2023/09/11 03:53:30;;;;;;;;;;;;;;;21.29;95.60;101222.50;5034367;28;19904;-72
2023/09/11 03:55:56;;;;;;;;;;;;;;;21.27;95.49;101217.28;5034492;28;19905;-72
2023/09/11 03:58:21;;;;;;;;;;;;;;;21.26;95.79;101223.56;5034070;28;19983;-72
2023/09/11 04:00:46;;;;;;;;;;;;;;;21.25;95.40;101218.41;5034572;28;19913;-72
2023/09/11 04:03:12;;;;;;;;;;;;;;;21.24;95.45;101217.53;5034859;28;20158;-72
2023/09/11 04:05:38;;;;;;;;;;;;;;;21.23;95.79;101212.34;5036989;28;20194;-72
2023/09/11 04:08:03;;;;;;;;;;;;;;;21.21;95.78;101215.13;5038101;28;20179;-72
2023/09/11 04:10:29;;;;;;;;;;;;;;;21.21;95.79;101223.13;5037904;28;19913;-72
2023/09/11 04:12:54;;;;;;;;;;;;;;;21.21;95.75;101214.25;5038009;28;20247;-72
2023/09/11 04:15:19;;;;;;;;;;;;;;;21.21;95.36;101216.94;5036961;28;19921;-72
2023/09/11 04:17:45;;;;;;;;;;;;;;;21.21;95.41;101216.94;5037674;28;19913;-72
2023/09/11 04:20:10;;;;;;;;;;;;;;;21.20;95.38;101218.75;5037782;28;19919;-72
2023/09/11 04:22:35;;;;;;;;;;;;;;;21.17;95.58;101213.66;5037084;28;19920;-71
2023/09/11 04:25:01;;;;;;;;;;;;;;;21.17;95.40;101218.16;5037556;28;19979;-72
2023/09/11 04:27:27;;;;;;;;;;;;;;;21.15;95.38;101222.75;5036820;28;19913;-72
2023/09/11 04:29:52;;;;;;;;;;;;;;;21.15;95.65;101226.25;5037397;28;20148;-72
2023/09/11 04:32:18;;;;;;;;;;;;;;;21.15;95.56;101218.25;5037001;28;19913;-72
2023/09/11 04:34:43;;;;;;;;;;;;;;;21.16;95.08;101216.47;5037671;28;20143;-72
2023/09/11 04:37:08;;;;;;;;;;;;;;;21.17;94.76;101220.81;5037691;28;19935;-72
2023/09/11 04:39:34;;;;;;;;;;;;;;;21.17;94.30;101218.97;5036692;28;19958;-72
2023/09/11 04:41:59;;;;;;;;;;;;;;;21.18;94.04;101225.19;5037253;28;19913;-72
2023/09/11 04:44:24;;;;;;;;;;;;;;;21.18;94.03;101223.34;5036482;28;20131;-72
2023/09/11 04:46:50;;;;;;;;;;;;;;;21.19;93.69;101224.19;5037376;28;20152;-72
2023/09/11 04:49:15;;;;;;;;;;;;;;;21.19;93.51;101221.53;5037229;28;20163;-72
2023/09/11 04:51:40;;;;;;;;;;;;;;;21.17;93.57;101220.81;5036957;28;20329;-72
2023/09/11 04:54:06;;;;;;;;;;;;;;;21.18;93.29;101223.34;5037514;28;19913;-72
2023/09/11 04:56:31;;;;;;;;;;;;;;;21.17;93.57;101223.47;5036807;28;19913;-72
2023/09/11 04:58:56;;;;;;;;;;;;;;;21.15;93.19;101218.25;5036976;28;19919;-72
2023/09/11 05:01:22;;;;;;;;;;;;;;;21.14;93.15;101224.56;5036151;28;19917;-72
2023/09/11 05:03:47;;;;;;;;;;;;;;;21.15;93.10;101225.41;5037593;28;19923;-72
2023/09/11 05:06:12;;;;;;;;;;;;;;;21.15;93.31;101225.41;5036530;28;20220;-72
2023/09/11 05:08:37;;;;;;;;;;;;;;;21.13;93.10;101228.19;5035580;28;21154;-72
2023/09/11 05:11:02;;;;;;;;;;;;;;;21.12;93.00;101231.84;5035369;28;19917;-72
2023/09/11 05:13:28;;;;;;;;;;;;;;;21.10;93.08;101233.75;5036046;28;19916;-72
2023/09/11 05:15:53;;;;;;;;;;;;;;;21.09;93.24;101240.06;5035662;28;19924;-72
2023/09/11 05:18:18;;;;;;;;;;;;;;;21.08;93.45;101238.34;5036047;28;19925;-72
2023/09/11 05:20:44;;;;;;;;;;;;;;;21.06;93.50;101235.81;5036743;28;19984;-72
2023/09/11 05:23:10;;;;;;;;;;;;;;;21.05;93.38;101238.63;5036454;28;19917;-72
2023/09/11 05:25:36;;;;;;;;;;;;;;;21.03;93.40;101240.56;5035738;28;19917;-72
2023/09/11 05:28:01;;;;;;;;;;;;;;;21.04;93.71;101244.91;5035701;28;19917;-72
2023/09/11 05:30:27;;;;;;;;;;;;;;;21.04;93.51;101240.41;5035802;28;19913;-72
2023/09/11 05:32:52;;;;;;;;;;;;;;;21.04;93.86;101243.06;5035449;28;19917;-72
2023/09/11 05:35:18;;;;;;;;;;;;;;;21.03;93.63;101235.25;5035857;28;20110;-72
2023/09/11 05:37:43;;;;;;;;;;;;;;;21.03;93.82;101238.75;5035997;28;19917;-72
2023/09/11 05:40:09;;;;;;;;;;;;;;;21.04;94.04;101250.22;5032619;28;20131;-72
2023/09/11 05:42:34;;;;;;;;;;;;;;;21.03;94.11;101248.56;5020637;28;19916;-74
2023/09/11 05:44:59;;;;;;;;;;;;;;;21.05;94.26;101254.59;5035693;28;19921;-72
2023/09/11 05:47:24;;;;;;;;;;;;;;;21.04;94.15;101267.03;5034745;28;19924;-72
2023/09/11 05:49:50;;;;;;;;;;;;;;;21.06;94.00;101270.44;5035995;28;20200;-72
2023/09/11 05:52:15;;;;;;;;;;;;;;;21.08;93.94;101264.97;5035640;28;19913;-72
2023/09/11 05:54:41;;;;;;;;;;;;;;;21.09;94.08;101277.34;5035260;28;19921;-72
2023/09/11 05:57:06;;;;;;;;;;;;;;;21.11;93.93;101280.72;5035595;28;19913;-72
2023/09/11 05:59:31;;;;;;;;;;;;;;;21.12;94.16;101282.44;5034954;28;20117;-72
2023/09/11 06:01:57;;;;;;;;;;;;;;;21.14;94.14;101288.50;5034478;28;19913;-72
2023/09/11 06:04:22;;;;;;;;;;;;;;;21.13;94.22;101289.44;5034622;28;19928;-72
2023/09/11 06:06:47;;;;;;;;;;;;;;;21.15;94.59;101287.50;5035551;28;20263;-72
2023/09/11 06:09:12;;;;;;;;;;;;;;;21.16;94.34;101289.22;5035161;28;20148;-72
2023/09/11 06:11:38;;;;;;;;;;;;;;;21.18;94.51;101289.09;5034829;28;20232;-72
2023/09/11 06:14:04;;;;;;;;;;;;;;;21.18;94.48;101289.09;5034241;28;19963;-72
2023/09/11 06:16:29;;;;;;;;;;;;;;;21.21;94.19;101296.81;5033292;28;20120;-72
2023/09/11 06:18:55;;;;;;;;;;;;;;;21.21;94.29;101295.03;5032556;28;19924;-72
2023/09/11 06:21:21;;;;;;;;;;;;;;;21.21;94.47;101287.03;5033803;28;20154;-71
2023/09/11 06:23:46;;;;;;;;;;;;;;;21.22;94.64;101290.53;5033340;28;20151;-72
2023/09/11 06:26:11;;;;;;;;;;;;;;;21.19;94.81;101283.66;5033502;28;20012;-72
2023/09/11 06:28:36;;;;;;;;;;;;;;;21.21;95.01;101283.50;5033133;28;20106;-72
2023/09/11 06:31:02;;;;;;;;;;;;;;;21.20;95.16;101280.00;5035257;28;19952;-72
2023/09/11 06:33:30;;;;;;;;;;;;;;;21.19;94.81;101283.66;5034089;28;19916;-72
2023/09/11 06:35:56;;;;;;;;;;;;;;;21.19;95.17;101281.00;5032347;28;19905;-72
2023/09/11 06:38:21;;;;;;;;;;;;;;;21.19;95.16;101278.34;5029784;28;19917;-72
2023/09/11 06:40:47;;;;;;;;;;;;;;;21.20;95.33;101281.84;5025685;28;19919;-72
2023/09/11 06:43:12;;;;;;;;;;;;;;;21.21;95.02;101279.06;5029659;28;20258;-72
2023/09/11 06:45:38;;;;;;;;;;;;;;;21.22;95.42;101277.22;5033096;28;19920;-72
2023/09/11 06:48:04;;;;;;;;;;;;;;;21.24;95.13;101284.13;5034041;28;19923;-72
2023/09/11 06:50:29;;;;;;;;;;;;;;;21.26;95.14;101286.66;5033459;28;20306;-72
2023/09/11 06:52:54;;;;;;;;;;;;;;;21.28;95.07;101292.72;5034221;28;19942;-72
2023/09/11 06:55:19;;;;;;;;;;;;;;;21.30;94.93;101290.78;5033136;28;20208;-72
2023/09/11 06:57:56;;;;;;;;;;;;;;;21.32;95.01;101290.66;5033793;28;20246;-72
2023/09/11 07:00:21;;;;;;;;;;;;;;;21.35;95.16;101288.59;5032637;28;20085;-72
2023/09/11 07:02:50;;;;;;;;;;;;;;;21.38;94.88;101292.84;5029875;28;19924;-72
2023/09/11 07:05:16;;;;;;;;;;;;;;;21.40;94.65;101289.09;5032776;28;19944;-72
2023/09/11 07:07:41;;;;;;;;;;;;;;;21.42;94.35;101292.47;5031718;28;19940;-72
2023/09/11 07:10:08;;;;;;;;;;;;;;;21.44;94.92;101295.03;5031547;28;19933;-72
2023/09/11 07:12:34;;;;;;;;;;;;;;;21.47;94.68;101301.00;5029535;28;20004;-72
2023/09/11 07:14:59;;;;;;;;;;;;;;;21.51;94.27;101300.75;5028972;28;19920;-72
2023/09/11 07:17:24;;;;;;;;;;;;;;;21.53;93.96;101302.31;5018871;28;19935;-72
2023/09/11 07:19:49;;;;;;;;;;;;;;;21.57;93.57;101305.56;5031083;28;20266;-72
2023/09/11 07:22:15;;;;;;;;;;;;;;;21.59;93.28;101301.84;5033182;28;20111;-72
2023/09/11 07:24:40;;;;;;;;;;;;;;;21.65;92.97;101305.81;5032079;28;20236;-72
2023/09/11 07:27:05;;;;;;;;;;;;;;;21.69;92.68;101309.09;5033384;28;20488;-72
2023/09/11 07:29:31;;;;;;;;;;;;;;;21.72;92.74;101303.50;5030140;28;19916;-72
2023/09/11 07:31:56;;;;;;;;;;;;;;;21.75;92.15;101309.44;5026492;28;19917;-72
2023/09/11 07:34:21;;;;;;;;;;;;;;;21.78;92.01;101308.34;5028274;28;19917;-72
2023/09/11 07:36:47;;;;;;;;;;;;;;;21.80;92.15;101307.25;5032450;28;19917;-72
2023/09/11 07:39:12;;;;;;;;;;;;;;;21.83;91.93;101314.16;5033811;28;20151;-72
2023/09/11 07:41:37;;;;;;;;;;;;;;;21.87;91.71;101312.09;5037568;28;19917;-72
2023/09/11 07:44:02;;;;;;;;;;;;;;;21.90;91.13;101314.50;5037799;28;20083;-72
2023/09/11 07:46:30;;;;;;;;;;;;;;;21.92;90.83;101321.41;5037911;28;20276;-72
2023/09/11 07:48:56;;;;;;;;;;;;;;;21.94;91.07;101315.94;5037708;28;20124;-72
2023/09/11 07:51:21;;;;;;;;;;;;;;;21.96;90.94;101314.84;5037222;28;19912;-72
2023/09/11 07:53:46;;;;;;;;;;;;;;;21.98;91.34;101314.72;5036802;28;19956;-71
2023/09/11 07:56:12;;;;;;;;;;;;;;;21.99;91.10;101314.63;5035380;28;19932;-72
2023/09/11 07:58:38;;;;;;;;;;;;;;;22.02;91.25;101314.34;5036147;28;19909;-72
2023/09/11 08:01:03;;;;;;;;;;;;;;;22.04;91.76;101311.56;5035668;28;20219;-72
2023/09/11 08:03:31;;;;;;;;;;;;;;;22.04;91.24;101317.72;5034695;28;19917;-72
2023/09/11 08:05:56;;;;;;;;;;;;;;;22.08;90.82;101328.16;5035609;28;19917;-72
2023/09/11 08:08:22;;;;;;;;;;;;;;;22.09;90.70;101329.84;5030394;28;20342;-72
2023/09/11 08:10:47;;;;;;;;;;;;;;;22.08;91.56;101338.81;5030990;28;19913;-72
2023/09/11 08:13:12;;;;;;;;;;;;;;;22.10;91.81;101337.72;5035402;28;19956;-72
2023/09/11 08:15:38;;;;;;;;;;;;;;;22.13;91.20;101341.97;5035958;28;19984;-72
2023/09/11 08:18:03;;;;;;;;;;;;;;;22.15;90.89;101340.00;5037537;28;19917;-72
2023/09/11 08:20:28;;;;;;;;;;;;;;;22.16;90.20;101347.91;5035996;28;19917;-72
2023/09/11 08:22:53;;;;;;;;;;;;;;;22.18;90.30;101345.94;5037783;28;19956;-72
2023/09/11 08:25:19;;;;;;;;;;;;;;;22.19;90.77;101344.13;5035755;28;19920;-72
2023/09/11 08:27:44;;;;;;;;;;;;;;;22.20;90.83;101346.66;5035664;28;19917;-72
2023/09/11 08:30:09;;;;;;;;;;;;;;;22.22;90.64;101343.88;5035777;28;19924;-72
2023/09/11 08:32:35;;;;;;;;;;;;;;;22.23;90.80;101343.75;5035417;28;19924;-72
2023/09/11 08:35:00;;;;;;;;;;;;;;;22.24;90.51;101339.25;5036313;28;19917;-72
2023/09/11 08:37:25;;;;;;;;;;;;;;;22.26;90.98;101342.66;5036600;28;19916;-72
2023/09/11 08:39:51;;;;;;;;;;;;;;;22.28;90.31;101337.22;5037470;28;20193;-72
2023/09/11 08:42:16;;;;;;;;;;;;;;;22.30;90.20;101335.25;5036760;28;19979;-72
2023/09/11 08:44:42;;;;;;;;;;;;;;;22.34;89.99;101337.56;5036546;28;19959;-72
2023/09/11 08:47:08;;;;;;;;;;;;;;;22.35;90.27;101339.25;5036614;28;20226;-72
2023/09/11 08:49:37;;;;;;;;;;;;;;;22.38;89.85;101339.00;5036794;28;20179;-71
2023/09/11 08:52:03;;;;;;;;;;;;;;;22.40;89.73;101339.72;5035538;28;19917;-72
2023/09/11 08:54:33;;;;;;;;;;;;;;;22.43;89.19;101334.13;5036507;28;19959;-72
2023/09/11 08:56:58;;;;;;;;;;;;;;;22.47;88.62;101336.56;5036734;28;19958;-72
2023/09/11 08:59:25;;;;;;;;;;;;;;;22.48;88.38;101341.75;5036101;28;19916;-72
2023/09/11 09:01:51;;;;;;;;;;;;;;;22.51;88.32;101349.50;5036156;28;19983;-72
2023/09/11 09:04:17;;;;;;;;;;;;;;;22.54;88.40;101345.72;5036309;28;19928;-72
2023/09/11 09:06:43;;;;;;;;;;;;;;;22.57;88.43;101348.13;5030592;28;19917;-72
2023/09/11 09:09:08;;;;;;;;;;;;;;;22.58;88.71;101349.84;5034111;28;20365;-72
2023/09/11 09:11:34;;;;;;;;;;;;;;;22.61;88.53;101350.44;5033614;28;19920;-72
2023/09/11 09:14:05;;;;;;;;;;;;;;;22.65;88.44;101355.50;5036074;28;20274;-72
2023/09/11 09:16:30;;;;;;;;;;;;;;;22.67;87.73;101350.91;5035803;28;19913;-72
2023/09/11 09:18:55;;;;;;;;;;;;;;;22.67;87.49;101354.41;5030458;28;19982;-72
2023/09/11 09:21:25;;;;;;;;;;;;;;;22.69;87.48;101355.13;5016426;28;19913;-72
2023/09/11 09:23:51;;;;;;;;;;;;;;;22.73;87.16;101351.22;5018670;28;20165;-71
2023/09/11 09:26:17;;;;;;;;;;;;;;;22.75;87.28;101353.75;5034616;28;20257;-71
2023/09/11 09:28:43;;;;;;;;;;;;;;;22.77;86.88;101359.81;5029488;28;20005;-71
2023/09/11 09:31:12;;;;;;;;;;;;;;;22.79;86.78;101357.84;5030816;28;20151;-72
2023/09/11 09:33:37;;;;;;;;;;;;;;;22.83;86.54;101361.13;5029967;28;19917;-72
2023/09/11 09:36:03;;;;;;;;;;;;;;;22.85;86.83;101356.47;5034688;28;19917;-72
2023/09/11 09:38:28;;;;;;;;;;;;;;;22.87;87.75;101354.56;5034739;28;19917;-72
2023/09/11 09:40:54;;;;;;;;;;;;;;;22.90;87.60;101359.63;5035204;28;20119;-72
2023/09/11 09:43:21;;;;;;;;;;;;;;;22.92;87.66;101365.66;5035360;28;20376;-72
2023/09/11 09:45:46;;;;;;;;;;;;;;;22.98;87.44;101365.16;5034943;28;19924;-72
2023/09/11 09:48:12;;;;;;;;;;;;;;;23.02;87.25;101360.41;5034722;28;19916;-71
2023/09/11 09:50:51;;;;;;;;;;;;;;;23.04;86.58;101369.13;5034936;28;19920;-72
2023/09/11 09:53:22;;;;;;;;;;;;;;;23.06;86.15;101361.88;5034311;28;20200;-72
2023/09/11 09:55:47;;;;;;;;;;;;;;;23.07;86.48;101372.44;5035509;28;20405;-72
2023/09/11 09:58:12;;;;;;;;;;;;;;;23.09;85.70;101365.13;5035486;28;19960;-72
2023/09/11 10:00:38;;;;;;;;;;;;;;;23.11;85.75;101365.84;5033897;28;19920;-72
2023/09/11 10:03:03;;;;;;;;;;;;;;;23.12;84.84;101356.00;5033574;28;19916;-72
2023/09/11 10:05:29;;;;;;;;;;;;;;;23.14;84.98;101360.25;5033433;28;20498;-71
2023/09/11 10:07:58;;;;;;;;;;;;;;;23.17;84.93;101361.78;5034349;28;19959;-71
2023/09/11 10:10:33;;;;;;;;;;;;;;;23.19;85.09;101366.03;5029721;28;19917;-72
2023/09/11 10:13:15;;;;;;;;;;;;;;;23.21;84.90;101367.72;5026281;28;19944;-72
2023/09/11 10:15:42;;;;;;;;;;;;;;;23.22;84.74;101367.59;5030885;28;20330;-72
2023/09/11 10:18:08;;;;;;;;;;;;;;;23.24;84.84;101362.97;5027678;28;19920;-71
2023/09/11 10:20:34;;;;;;;;;;;;;;;23.26;84.92;101365.50;5031434;28;19960;-71
2023/09/11 10:23:00;;;;;;;;;;;;;;;23.25;84.27;101367.34;5031395;28;19955;-72
2023/09/11 10:25:29;;;;;;;;;;;;;;;23.27;84.56;101360.03;5033456;28;19924;-72
2023/09/11 10:28:02;;;;;;;;;;;;;;;23.30;84.45;101356.22;5030778;28;20208;-72
2023/09/11 10:30:31;;;;;;;;;;;;;;;23.30;84.28;101356.22;5031830;28;19948;-72
2023/09/11 10:32:59;;;;;;;;;;;;;;;23.33;84.66;101366.66;5024407;28;19916;-72
2023/09/11 10:35:29;;;;;;;;;;;;;;;23.36;84.29;101377.09;5029785;28;19917;-72
2023/09/11 10:37:57;;;;;;;;;;;;;;;23.40;84.21;101380.34;5033792;28;20188;-72
2023/09/11 10:40:29;;;;;;;;;;;;;;;23.41;84.68;101369.50;5027398;28;19955;-71
2023/09/11 10:42:54;;;;;;;;;;;;;;;23.42;84.49;101368.53;5029161;28;19909;-72
2023/09/11 10:45:26;;;;;;;;;;;;;;;23.45;84.24;101373.63;5023447;28;20007;-72
2023/09/11 10:47:51;;;;;;;;;;;;;;;23.47;84.65;101370.81;5029286;28;19931;-71
2023/09/11 10:50:17;;;;;;;;;;;;;;;23.49;84.45;101363.50;5033877;28;19952;-72
2023/09/11 10:52:44;;;;;;;;;;;;;;;23.51;84.32;101373.09;5035449;28;19951;-72
2023/09/11 10:55:09;;;;;;;;;;;;;;;23.54;84.22;101375.50;5033786;28;19940;-72
2023/09/11 10:57:34;;;;;;;;;;;;;;;23.56;85.26;101372.69;5033346;28;20259;-72
2023/09/11 11:00:00;;;;;;;;;;;;;;;23.57;85.92;101375.22;5033980;28;19923;-72
2023/09/11 11:02:25;;;;;;;;;;;;;;;23.57;85.96;101369.84;5036804;28;19948;-71
2023/09/11 11:04:50;;;;;;;;;;;;;;;23.58;87.08;101373.41;5033656;28;19963;-72
2023/09/11 11:07:16;;;;;;;;;;;;;;;23.55;87.84;101369.16;5034366;28;19917;-72
2023/09/11 11:09:41;;;;;;;;;;;;;;;23.55;88.96;101371.81;5034797;28;19924;-72
2023/09/11 11:12:10;;;;;;;;;;;;;;;23.57;88.62;101382.38;5031871;28;20015;-74
2023/09/11 11:14:35;;;;;;;;;;;;;;;23.53;88.30;101380.97;5028190;28;19952;-72
2023/09/11 11:17:04;;;;;;;;;;;;;;;23.54;88.48;101388.88;5034291;28;19916;-72
2023/09/11 11:19:31;;;;;;;;;;;;;;;23.50;88.30;101390.13;5038017;28;19912;-72
2023/09/11 11:21:56;;;;;;;;;;;;;;;23.47;88.45;101386.88;5036505;28;19921;-72
2023/09/11 11:24:23;;;;;;;;;;;;;;;23.48;88.46;101385.88;5036645;28;19925;-72
2023/09/11 11:26:48;;;;;;;;;;;;;;;23.47;88.18;101387.69;5037779;28;20241;-72
2023/09/11 11:29:15;;;;;;;;;;;;;;;23.44;87.45;101393.31;5037645;28;19983;-72
2023/09/11 11:31:40;;;;;;;;;;;;;;;23.50;87.46;101392.78;5036985;28;19913;-72
2023/09/11 11:34:06;;;;;;;;;;;;;;;23.54;87.39;101396.03;5037158;28;19936;-72
2023/09/11 11:36:31;;;;;;;;;;;;;;;23.55;87.38;101397.72;5037479;28;19948;-72
2023/09/11 11:38:58;;;;;;;;;;;;;;;23.56;87.31;101402.09;5037946;28;19912;-72
2023/09/11 11:41:24;;;;;;;;;;;;;;;23.57;87.06;101412.63;5037829;28;20123;-72
2023/09/11 11:43:50;;;;;;;;;;;;;;;23.60;86.99;101403.50;5038100;28;19917;-72
2023/09/11 11:46:16;;;;;;;;;;;;;;;23.63;86.95;101405.94;5038286;28;20395;-72
2023/09/11 11:48:42;;;;;;;;;;;;;;;23.62;86.51;101408.72;5037998;28;19944;-72
2023/09/11 11:51:07;;;;;;;;;;;;;;;23.64;86.19;101398.75;5038138;28;20248;-72
2023/09/11 11:53:33;;;;;;;;;;;;;;;23.63;86.70;101397.91;5037508;28;19913;-72
2023/09/11 11:55:59;;;;;;;;;;;;;;;23.56;85.40;101400.25;5038020;28;19939;-72
2023/09/11 11:58:25;;;;;;;;;;;;;;;23.54;85.30;101399.56;5037331;28;19955;-72
2023/09/11 12:01:04;;;;;;;;;;;;;;;23.55;85.79;101401.22;5034555;28;20147;-72
2023/09/11 12:03:43;;;;;;;;;;;;;;;23.57;85.59;101403.78;5029049;28;19936;-72
2023/09/11 12:06:09;;;;;;;;;;;;;;;23.58;85.64;101408.16;5026672;28;19920;-72
2023/09/11 12:08:34;;;;;;;;;;;;;;;23.59;85.66;101399.13;5021985;28;19917;-72
2023/09/11 12:10:59;;;;;;;;;;;;;;;23.51;84.43;101410.50;5037702;28;19913;-72
2023/09/11 12:13:25;;;;;;;;;;;;;;;23.47;85.27;101405.56;5037135;28;20235;-72
2023/09/11 12:15:52;;;;;;;;;;;;;;;23.37;85.58;101405.50;5030081;28;19924;-72
2023/09/11 12:18:18;;;;;;;;;;;;;;;23.33;85.34;101404.09;5036009;28;20300;-72
2023/09/11 12:21:09;;;;;;;;;;;;;;;23.36;85.47;101407.34;5036926;28;20120;-72
2023/09/11 12:23:34;;;;;;;;;;;;;;;23.42;85.44;101410.47;5025624;28;20104;-71
2023/09/11 12:26:01;;;;;;;;;;;;;;;23.40;84.71;101407.91;5029355;28;19948;-72
2023/09/11 12:28:26;;;;;;;;;;;;;;;23.29;84.96;101405.34;5034088;28;20035;-72
2023/09/11 12:30:52;;;;;;;;;;;;;;;23.24;84.92;101411.06;5037253;28;20204;-72